0M2 weather

Reelfoot Lake Airport
Tiptonville, Tennessee, United States

Public forecast

Using degrees Fahrenheit for public forecast. Weather courtesy of forecast.io.

Closest aviation weather report (METAR) to Reelfoot Lake Airport

Closest report is Everett-Stewart Regional Airport, 18.3 nm (33.9 km) ESE. Retrieved 2019/12/09 09:35 UTC (24 minutes ago):

KUCY 090935Z AUTO 19014G19KT 10SM BKN032 OVC049 15/13 A2977 RMK A01

Closest aviation forecast (TAF) to Reelfoot Lake Airport

Closest forecast is Barkley Regional Airport, 44.7 nm (82.7 km) NE. Retrieved 2019/12/09 06:28 UTC (4 hours ago):

TAF KPAH 090525Z 0906/1006 19011KT P6SM VCSH OVC027 FM091500 20015KT 6SM -SHRA OVC010 FM091600 20014G22KT 6SM -SHRA OVC008 FM092100 23013G21KT 6SM -SHRA OVC013 FM100000 27011KT 6SM -RA OVC020 FM100300 31013KT 6SM -RA BKN017